N2855K FPST-FPPR
Flight info
| Callsign | N2855K |
|---|---|
| Flight time | 0h 39m |
| Altitude | 5500 |
| Route | STM |
| Aircraft | DA42/L-SDE2E3FGHIRWXY/LB1 |
Departure
| Time | 2026-04-28 19:58 |
|---|---|
| Airport | São Tomé International Airport (FPST) |
Arrival
| Time | 2026-04-28 20:37 |
|---|---|
| Airport | Principe Airport (FPPR) |
| Time | Latitude | Longitude | Altitude | Speed | Heading |
|---|---|---|---|---|---|
| 2026-04-28 19:53 | 0.37534 | 6.71286 | 42 ft | 0 kts | 284° |
| 2026-04-28 19:54 | 0.37535 | 6.71284 | 42 ft | 2 kts | 303° |
| 2026-04-28 19:54 | 0.37575 | 6.71270 | 42 ft | 8 kts | 354° |
| 2026-04-28 19:54 | 0.37632 | 6.71278 | 41 ft | 9 kts | 13° |
| 2026-04-28 19:55 | 0.37697 | 6.71293 | 39 ft | 10 kts | 14° |
| 2026-04-28 19:55 | 0.37769 | 6.71296 | 38 ft | 11 kts | 327° |
| 2026-04-28 19:55 | 0.37805 | 6.71222 | 39 ft | 14 kts | 285° |
| 2026-04-28 19:55 | 0.37828 | 6.71126 | 39 ft | 15 kts | 283° |
| 2026-04-28 19:56 | 0.37853 | 6.71016 | 39 ft | 16 kts | 282° |
| 2026-04-28 19:56 | 0.37877 | 6.70912 | 39 ft | 15 kts | 282° |
| 2026-04-28 19:56 | 0.37899 | 6.70816 | 39 ft | 14 kts | 283° |
| 2026-04-28 19:56 | 0.37924 | 6.70765 | 40 ft | 7 kts | 81° |
| 2026-04-28 19:57 | 0.37893 | 6.70889 | 39 ft | 46 kts | 104° |
| 2026-04-28 19:57 | 0.37777 | 6.71361 | 37 ft | 89 kts | 105° |
| 2026-04-28 19:57 | 0.37620 | 6.71987 | 209 ft | 92 kts | 102° |
| 2026-04-28 19:57 | 0.37500 | 6.72626 | 421 ft | 94 kts | 103° |
| 2026-04-28 19:58 | 0.37503 | 6.73264 | 644 ft | 94 kts | 67° |
| 2026-04-28 19:58 | 0.37956 | 6.73726 | 847 ft | 97 kts | 23° |
| 2026-04-28 19:58 | 0.38628 | 6.73830 | 1041 ft | 99 kts | 1° |
| 2026-04-28 19:58 | 0.39320 | 6.73838 | 1247 ft | 100 kts | 358° |
| 2026-04-28 19:59 | 0.40016 | 6.73845 | 1468 ft | 100 kts | 358° |
| 2026-04-28 19:59 | 0.40707 | 6.73861 | 1690 ft | 100 kts | 359° |
| 2026-04-28 19:59 | 0.41405 | 6.73879 | 1900 ft | 101 kts | 5° |
| 2026-04-28 19:59 | 0.42080 | 6.74097 | 2107 ft | 103 kts | 19° |
| 2026-04-28 20:00 | 0.42743 | 6.74366 | 2315 ft | 103 kts | 20° |
| 2026-04-28 20:00 | 0.43404 | 6.74642 | 2525 ft | 104 kts | 20° |
| 2026-04-28 20:00 | 0.44069 | 6.74927 | 2733 ft | 104 kts | 21° |
| 2026-04-28 20:00 | 0.44739 | 6.75221 | 2926 ft | 105 kts | 22° |
| 2026-04-28 20:01 | 0.45409 | 6.75520 | 3112 ft | 106 kts | 23° |
| 2026-04-28 20:01 | 0.46084 | 6.75825 | 3317 ft | 106 kts | 22° |
| 2026-04-28 20:01 | 0.46758 | 6.76131 | 3505 ft | 106 kts | 23° |
| 2026-04-28 20:01 | 0.47422 | 6.76435 | 3687 ft | 105 kts | 25° |
| 2026-04-28 20:02 | 0.48091 | 6.76742 | 3863 ft | 106 kts | 24° |
| 2026-04-28 20:02 | 0.48761 | 6.77057 | 4052 ft | 106 kts | 26° |
| 2026-04-28 20:02 | 0.49420 | 6.77366 | 4254 ft | 105 kts | 25° |
| 2026-04-28 20:02 | 0.50078 | 6.77676 | 4456 ft | 104 kts | 26° |
| 2026-04-28 20:03 | 0.50734 | 6.77983 | 4657 ft | 104 kts | 26° |
| 2026-04-28 20:03 | 0.51380 | 6.78290 | 4870 ft | 102 kts | 27° |
| 2026-04-28 20:03 | 0.52024 | 6.78596 | 5069 ft | 102 kts | 27° |
| 2026-04-28 20:03 | 0.52664 | 6.78905 | 5262 ft | 103 kts | 27° |
| 2026-04-28 20:04 | 0.53313 | 6.79216 | 5450 ft | 104 kts | 27° |
| 2026-04-28 20:04 | 0.54003 | 6.79548 | 5528 ft | 117 kts | 27° |
| 2026-04-28 20:04 | 0.54781 | 6.79925 | 5541 ft | 130 kts | 27° |
| 2026-04-28 20:04 | 0.55636 | 6.80341 | 5540 ft | 140 kts | 27° |
| 2026-04-28 20:05 | 0.56535 | 6.80775 | 5533 ft | 146 kts | 27° |
| 2026-04-28 20:05 | 0.57463 | 6.81228 | 5533 ft | 150 kts | 27° |
| 2026-04-28 20:05 | 0.58414 | 6.81685 | 5532 ft | 152 kts | 27° |
| 2026-04-28 20:05 | 0.59373 | 6.82152 | 5531 ft | 154 kts | 27° |
| 2026-04-28 20:06 | 0.60329 | 6.82643 | 5533 ft | 154 kts | 33° |
| 2026-04-28 20:06 | 0.61249 | 6.83203 | 5536 ft | 155 kts | 33° |
| 2026-04-28 20:06 | 0.62188 | 6.83756 | 5535 ft | 156 kts | 32° |
| 2026-04-28 20:06 | 0.63130 | 6.84295 | 5535 ft | 156 kts | 32° |
| 2026-04-28 20:07 | 0.64077 | 6.84823 | 5534 ft | 156 kts | 31° |
| 2026-04-28 20:07 | 0.64693 | 6.85194 | 5534 ft | 155 kts | 37° |
| 2026-04-28 20:07 | 0.65880 | 6.86011 | 5533 ft | 155 kts | 36° |
| 2026-04-28 20:07 | 0.66784 | 6.86599 | 5533 ft | 155 kts | 34° |
| 2026-04-28 20:08 | 0.67657 | 6.87230 | 5536 ft | 155 kts | 40° |
| 2026-04-28 20:08 | 0.68518 | 6.87893 | 5536 ft | 155 kts | 39° |
| 2026-04-28 20:08 | 0.69394 | 6.88528 | 5533 ft | 156 kts | 36° |
| 2026-04-28 20:08 | 0.70286 | 6.89142 | 5534 ft | 156 kts | 35° |
| 2026-04-28 20:09 | 0.71193 | 6.89737 | 5535 ft | 156 kts | 34° |
| 2026-04-28 20:09 | 0.72111 | 6.90316 | 5536 ft | 156 kts | 33° |
| 2026-04-28 20:09 | 0.73056 | 6.90852 | 5533 ft | 157 kts | 25° |
| 2026-04-28 20:09 | 0.74060 | 6.91275 | 5536 ft | 157 kts | 25° |
| 2026-04-28 20:10 | 0.75066 | 6.91716 | 5536 ft | 156 kts | 26° |
| 2026-04-28 20:10 | 0.76059 | 6.92167 | 5535 ft | 156 kts | 27° |
| 2026-04-28 20:10 | 0.77044 | 6.92632 | 5534 ft | 156 kts | 27° |
| 2026-04-28 20:10 | 0.78024 | 6.93106 | 5534 ft | 156 kts | 28° |
| 2026-04-28 20:11 | 0.79002 | 6.93588 | 5533 ft | 157 kts | 28° |
| 2026-04-28 20:11 | 0.79977 | 6.94076 | 5533 ft | 157 kts | 28° |
| 2026-04-28 20:11 | 0.80951 | 6.94567 | 5535 ft | 156 kts | 29° |
| 2026-04-28 20:11 | 0.81928 | 6.95066 | 5534 ft | 156 kts | 29° |
| 2026-04-28 20:12 | 0.82895 | 6.95566 | 5533 ft | 156 kts | 29° |
| 2026-04-28 20:12 | 0.83863 | 6.96066 | 5534 ft | 157 kts | 28° |
| 2026-04-28 20:12 | 0.84830 | 6.96568 | 5531 ft | 157 kts | 29° |
| 2026-04-28 20:12 | 0.85806 | 6.97079 | 5491 ft | 159 kts | 30° |
| 2026-04-28 20:13 | 0.86787 | 6.97593 | 5479 ft | 159 kts | 29° |
| 2026-04-28 20:13 | 0.87768 | 6.98106 | 5477 ft | 159 kts | 29° |
| 2026-04-28 20:13 | 0.88750 | 6.98621 | 5475 ft | 158 kts | 29° |
| 2026-04-28 20:13 | 0.89721 | 6.99131 | 5474 ft | 158 kts | 29° |
| 2026-04-28 20:14 | 0.90689 | 6.99642 | 5472 ft | 157 kts | 29° |
| 2026-04-28 20:14 | 0.91650 | 7.00147 | 5473 ft | 155 kts | 29° |
| 2026-04-28 20:14 | 0.92606 | 7.00653 | 5469 ft | 155 kts | 29° |
| 2026-04-28 20:14 | 0.93561 | 7.01156 | 5467 ft | 155 kts | 29° |
| 2026-04-28 20:15 | 0.94516 | 7.01657 | 5463 ft | 155 kts | 30° |
| 2026-04-28 20:15 | 0.95477 | 7.02165 | 5456 ft | 155 kts | 30° |
| 2026-04-28 20:15 | 0.96433 | 7.02669 | 5454 ft | 155 kts | 29° |
| 2026-04-28 20:15 | 0.97387 | 7.03174 | 5455 ft | 155 kts | 29° |
| 2026-04-28 20:16 | 0.98343 | 7.03678 | 5455 ft | 155 kts | 30° |
| 2026-04-28 20:16 | 0.99296 | 7.04183 | 5453 ft | 155 kts | 29° |
| 2026-04-28 20:16 | 1.00249 | 7.04683 | 5459 ft | 154 kts | 30° |
| 2026-04-28 20:16 | 1.01197 | 7.05184 | 5462 ft | 154 kts | 29° |
| 2026-04-28 20:17 | 1.02152 | 7.05689 | 5469 ft | 154 kts | 30° |
| 2026-04-28 20:17 | 1.03098 | 7.06188 | 5476 ft | 154 kts | 30° |
| 2026-04-28 20:17 | 1.04045 | 7.06685 | 5476 ft | 153 kts | 30° |
| 2026-04-28 20:17 | 1.04988 | 7.07186 | 5477 ft | 153 kts | 30° |
| 2026-04-28 20:18 | 1.05933 | 7.07683 | 5472 ft | 153 kts | 31° |
| 2026-04-28 20:18 | 1.06875 | 7.08181 | 5477 ft | 153 kts | 30° |
| 2026-04-28 20:18 | 1.07818 | 7.08679 | 5474 ft | 153 kts | 30° |
| 2026-04-28 20:18 | 1.08768 | 7.09181 | 5474 ft | 153 kts | 30° |
| 2026-04-28 20:19 | 1.09712 | 7.09680 | 5475 ft | 154 kts | 30° |
| 2026-04-28 20:19 | 1.10657 | 7.10180 | 5477 ft | 154 kts | 30° |
| 2026-04-28 20:19 | 1.11606 | 7.10676 | 5474 ft | 154 kts | 30° |
| 2026-04-28 20:19 | 1.12553 | 7.11175 | 5476 ft | 154 kts | 30° |
| 2026-04-28 20:20 | 1.13501 | 7.11674 | 5477 ft | 154 kts | 30° |
| 2026-04-28 20:20 | 1.14448 | 7.12170 | 5476 ft | 154 kts | 30° |
| 2026-04-28 20:20 | 1.15400 | 7.12671 | 5477 ft | 153 kts | 30° |
| 2026-04-28 20:20 | 1.16343 | 7.13172 | 5476 ft | 153 kts | 30° |
| 2026-04-28 20:21 | 1.17288 | 7.13669 | 5478 ft | 153 kts | 30° |
| 2026-04-28 20:21 | 1.18233 | 7.14169 | 5477 ft | 154 kts | 29° |
| 2026-04-28 20:21 | 1.19180 | 7.14669 | 5478 ft | 154 kts | 30° |
| 2026-04-28 20:21 | 1.20127 | 7.15167 | 5478 ft | 154 kts | 30° |
| 2026-04-28 20:22 | 1.21072 | 7.15668 | 5476 ft | 154 kts | 30° |
| 2026-04-28 20:22 | 1.22027 | 7.16170 | 5476 ft | 154 kts | 30° |
| 2026-04-28 20:22 | 1.22972 | 7.16670 | 5475 ft | 154 kts | 30° |
| 2026-04-28 20:22 | 1.23917 | 7.17170 | 5477 ft | 154 kts | 30° |
| 2026-04-28 20:23 | 1.24863 | 7.17670 | 5475 ft | 154 kts | 30° |
| 2026-04-28 20:23 | 1.25809 | 7.18169 | 5476 ft | 153 kts | 30° |
| 2026-04-28 20:23 | 1.26753 | 7.18666 | 5476 ft | 153 kts | 30° |
| 2026-04-28 20:23 | 1.27694 | 7.19164 | 5477 ft | 153 kts | 31° |
| 2026-04-28 20:24 | 1.28642 | 7.19665 | 5476 ft | 153 kts | 30° |
| 2026-04-28 20:24 | 1.29582 | 7.20162 | 5474 ft | 152 kts | 30° |
| 2026-04-28 20:24 | 1.30520 | 7.20659 | 5474 ft | 153 kts | 31° |
| 2026-04-28 20:24 | 1.31460 | 7.21153 | 5476 ft | 153 kts | 30° |
| 2026-04-28 20:25 | 1.32399 | 7.21652 | 5475 ft | 153 kts | 30° |
| 2026-04-28 20:25 | 1.33343 | 7.22144 | 5474 ft | 153 kts | 28° |
| 2026-04-28 20:25 | 1.34307 | 7.22602 | 5476 ft | 153 kts | 28° |
| 2026-04-28 20:25 | 1.35279 | 7.23060 | 5476 ft | 153 kts | 27° |
| 2026-04-28 20:26 | 1.36247 | 7.23511 | 5475 ft | 153 kts | 27° |
| 2026-04-28 20:26 | 1.37215 | 7.23957 | 5476 ft | 153 kts | 27° |
| 2026-04-28 20:26 | 1.38183 | 7.24409 | 5475 ft | 153 kts | 28° |
| 2026-04-28 20:26 | 1.39142 | 7.24875 | 5476 ft | 153 kts | 28° |
| 2026-04-28 20:27 | 1.40101 | 7.25337 | 5477 ft | 153 kts | 29° |
| 2026-04-28 20:27 | 1.41063 | 7.25793 | 5476 ft | 152 kts | 28° |
| 2026-04-28 20:27 | 1.42027 | 7.26257 | 5460 ft | 152 kts | 28° |
| 2026-04-28 20:27 | 1.42971 | 7.26722 | 5349 ft | 151 kts | 28° |
| 2026-04-28 20:28 | 1.43916 | 7.27186 | 5220 ft | 151 kts | 29° |
| 2026-04-28 20:28 | 1.44865 | 7.27655 | 5063 ft | 153 kts | 28° |
| 2026-04-28 20:28 | 1.45819 | 7.28133 | 4922 ft | 154 kts | 28° |
| 2026-04-28 20:28 | 1.46777 | 7.28613 | 4782 ft | 154 kts | 28° |
| 2026-04-28 20:29 | 1.47738 | 7.29091 | 4644 ft | 154 kts | 29° |
| 2026-04-28 20:29 | 1.48701 | 7.29585 | 4509 ft | 154 kts | 30° |
| 2026-04-28 20:29 | 1.49659 | 7.30072 | 4367 ft | 155 kts | 29° |
| 2026-04-28 20:29 | 1.50621 | 7.30564 | 4228 ft | 155 kts | 30° |
| 2026-04-28 20:30 | 1.51584 | 7.31057 | 4097 ft | 155 kts | 29° |
| 2026-04-28 20:30 | 1.52545 | 7.31550 | 3951 ft | 157 kts | 30° |
| 2026-04-28 20:30 | 1.53521 | 7.32041 | 3827 ft | 156 kts | 30° |
| 2026-04-28 20:30 | 1.54491 | 7.32538 | 3684 ft | 157 kts | 29° |
| 2026-04-28 20:31 | 1.55462 | 7.33043 | 3567 ft | 156 kts | 30° |
| 2026-04-28 20:31 | 1.56422 | 7.33524 | 3487 ft | 152 kts | 29° |
| 2026-04-28 20:31 | 1.57360 | 7.33993 | 3385 ft | 150 kts | 30° |
| 2026-04-28 20:31 | 1.58300 | 7.34452 | 3263 ft | 150 kts | 29° |
| 2026-04-28 20:32 | 1.59239 | 7.34918 | 3108 ft | 151 kts | 30° |
| 2026-04-28 20:32 | 1.60174 | 7.35405 | 2975 ft | 151 kts | 32° |
| 2026-04-28 20:32 | 1.61089 | 7.35928 | 2845 ft | 151 kts | 33° |
| 2026-04-28 20:32 | 1.62013 | 7.36453 | 2709 ft | 152 kts | 32° |
| 2026-04-28 20:33 | 1.62932 | 7.36983 | 2570 ft | 153 kts | 32° |
| 2026-04-28 20:33 | 1.63852 | 7.37525 | 2434 ft | 154 kts | 32° |
| 2026-04-28 20:33 | 1.64854 | 7.37902 | 2318 ft | 154 kts | 7° |
| 2026-04-28 20:33 | 1.65918 | 7.38004 | 2206 ft | 154 kts | 5° |
| 2026-04-28 20:34 | 1.66985 | 7.38074 | 2105 ft | 152 kts | 6° |
| 2026-04-28 20:34 | 1.68048 | 7.38144 | 1975 ft | 153 kts | 6° |
| 2026-04-28 20:34 | 1.69110 | 7.38202 | 1888 ft | 150 kts | 5° |
| 2026-04-28 20:34 | 1.70154 | 7.38243 | 1780 ft | 150 kts | 5° |
| 2026-04-28 20:35 | 1.71181 | 7.38354 | 1658 ft | 147 kts | 26° |
| 2026-04-28 20:35 | 1.71834 | 7.39060 | 1595 ft | 138 kts | 73° |
| 2026-04-28 20:35 | 1.71811 | 7.39971 | 1581 ft | 132 kts | 114° |
| 2026-04-28 20:35 | 1.71158 | 7.40569 | 1579 ft | 131 kts | 158° |
| 2026-04-28 20:36 | 1.70283 | 7.40786 | 1545 ft | 128 kts | 158° |
| 2026-04-28 20:36 | 1.69397 | 7.41014 | 1366 ft | 132 kts | 168° |
| 2026-04-28 20:36 | 1.68490 | 7.41106 | 1081 ft | 131 kts | 175° |
| 2026-04-28 20:36 | 1.67623 | 7.41094 | 803 ft | 112 kts | 179° |
| 2026-04-28 20:37 | 1.66942 | 7.41102 | 578 ft | 87 kts | 176° |
| 2026-04-28 20:37 | 1.66479 | 7.41104 | 571 ft | 35 kts | 181° |
| 2026-04-28 20:37 | 1.66342 | 7.41097 | 573 ft | 9 kts | 109° |
| 2026-04-28 20:37 | 1.66405 | 7.41104 | 572 ft | 12 kts | 359° |
| 2026-04-28 20:38 | 1.66476 | 7.41134 | 571 ft | 11 kts | 66° |
| 2026-04-28 20:38 | 1.66515 | 7.41186 | 572 ft | 9 kts | 16° |
| 2026-04-28 20:38 | 1.66540 | 7.41207 | 573 ft | 0 kts | 54° |